createdAt,value
2022-09-10T00:02:26.043Z,19.38
2022-09-10T00:04:53.306Z,18.40
2022-09-10T00:07:20.477Z,26.75
2022-09-10T00:09:47.217Z,24.05
2022-09-10T00:12:15.059Z,22.95
2022-09-10T00:14:41.830Z,23.13
2022-09-10T00:17:08.588Z,23.60
2022-09-10T00:19:35.487Z,21.05
2022-09-10T00:22:02.230Z,22.60
2022-09-10T00:24:29.359Z,31.85
2022-09-10T00:26:56.110Z,29.23
2022-09-10T00:29:23.019Z,26.13
2022-09-10T00:31:50.284Z,29.52
2022-09-10T00:34:17.341Z,25.15
2022-09-10T00:36:44.271Z,25.67
2022-09-10T00:39:12.916Z,29.92
2022-09-10T00:41:40.537Z,31.92
2022-09-10T00:44:27.315Z,24.00
2022-09-10T00:46:54.688Z,22.52
2022-09-10T00:49:24.206Z,25.77
2022-09-10T00:51:52.751Z,18.92
2022-09-10T00:54:20.441Z,24.15
2022-09-10T00:56:49.687Z,25.65
2022-09-10T00:59:18.921Z,18.38
2022-09-10T01:01:46.101Z,15.82
2022-09-10T01:04:12.974Z,24.58
2022-09-10T01:06:40.549Z,17.30
2022-09-10T01:09:08.032Z,19.45
2022-09-10T01:11:46.502Z,23.67
2022-09-10T01:14:28.633Z,25.05
2022-09-10T01:16:55.562Z,20.13
2022-09-10T01:19:31.502Z,20.65
2022-09-10T01:22:18.714Z,18.63
2022-09-10T01:24:48.561Z,21.48
2022-09-10T01:27:21.505Z,28.25
2022-09-10T01:29:53.581Z,22.10
2022-09-10T01:32:56.021Z,21.73
2022-09-10T01:35:26.306Z,25.17
2022-09-10T01:37:55.250Z,21.52
2022-09-10T01:40:30.013Z,22.27
2022-09-10T01:43:08.320Z,23.50
2022-09-10T01:45:55.059Z,26.48
2022-09-10T01:48:28.470Z,31.63
2022-09-10T01:51:12.122Z,22.73
2022-09-10T01:54:04.853Z,25.65
2022-09-10T01:56:35.760Z,29.60
2022-09-10T01:59:12.930Z,24.17
2022-09-10T02:01:50.584Z,27.95
2022-09-10T02:04:18.026Z,23.77
2022-09-10T02:06:47.610Z,24.58
2022-09-10T02:09:15.360Z,26.80
2022-09-10T02:11:47.412Z,23.05
2022-09-10T02:14:23.669Z,22.70
2022-09-10T02:17:10.675Z,23.33
2022-09-10T02:19:38.524Z,31.73
2022-09-10T02:22:05.691Z,24.38
2022-09-10T02:24:32.500Z,26.17
2022-09-10T02:27:00.500Z,28.40
2022-09-10T02:29:28.720Z,26.40
2022-09-10T02:31:55.708Z,26.20
2022-09-10T02:34:22.495Z,27.33
2022-09-10T02:36:49.825Z,32.05
2022-09-10T02:39:16.537Z,26.08
2022-09-10T02:41:44.442Z,26.98
2022-09-10T02:44:11.271Z,28.27
2022-09-10T02:46:38.397Z,29.88
2022-09-10T02:49:05.214Z,26.13
2022-09-10T02:51:37.109Z,31.90
2022-09-10T02:54:04.542Z,23.27
2022-09-10T02:56:31.427Z,30.05
2022-09-10T02:58:58.331Z,22.70
2022-09-10T03:01:26.627Z,26.15
2022-09-10T03:03:59.909Z,27.50
2022-09-10T03:06:28.945Z,24.25
2022-09-10T03:08:55.739Z,23.95
2022-09-10T03:11:24.483Z,27.90
2022-09-10T03:13:52.220Z,27.70
2022-09-10T03:16:19.680Z,31.30
2022-09-10T03:18:47.012Z,28.42
2022-09-10T03:21:16.262Z,37.65
2022-09-10T03:23:44.628Z,31.38
2022-09-10T03:26:11.933Z,36.55
2022-09-10T03:28:38.834Z,29.73
2022-09-10T03:31:07.661Z,29.75
2022-09-10T03:33:41.067Z,34.17
2022-09-10T03:36:09.765Z,33.38
2022-09-10T03:38:36.544Z,26.88
2022-09-10T03:41:03.689Z,24.80
2022-09-10T03:43:31.036Z,30.50
2022-09-10T03:45:58.633Z,30.35
2022-09-10T03:48:25.845Z,31.60
2022-09-10T03:50:52.803Z,26.70
2022-09-10T03:53:20.761Z,29.05
2022-09-10T03:55:48.345Z,27.80
2022-09-10T03:58:18.046Z,33.03
2022-09-10T04:00:46.630Z,24.17
2022-09-10T04:03:14.599Z,25.90
2022-09-10T04:05:44.213Z,36.75
2022-09-10T04:08:12.099Z,27.23
2022-09-10T04:10:39.718Z,27.25
2022-09-10T04:13:07.235Z,31.25
2022-09-10T04:15:35.594Z,29.27
2022-09-10T04:18:03.737Z,35.58
2022-09-10T04:20:30.732Z,27.67
2022-09-10T04:23:05.729Z,29.60
2022-09-10T04:25:35.170Z,29.63
2022-09-10T04:28:02.082Z,28.90
2022-09-10T04:30:30.457Z,22.00
2022-09-10T04:32:57.566Z,27.90
2022-09-10T04:35:24.582Z,28.38
2022-09-10T04:37:51.554Z,25.52
2022-09-10T04:40:18.256Z,28.00
2022-09-10T04:42:45.273Z,26.85
2022-09-10T04:45:12.403Z,35.08
2022-09-10T04:47:39.159Z,38.60
2022-09-10T04:50:07.300Z,35.95
2022-09-10T04:52:34.213Z,43.13
2022-09-10T04:55:01.106Z,81.93
2022-09-10T04:57:28.981Z,84.18
2022-09-10T04:59:55.916Z,87.32
2022-09-10T05:02:23.491Z,94.75
2022-09-10T05:04:50.889Z,102.90
2022-09-10T05:07:17.784Z,93.40
2022-09-10T05:09:44.516Z,72.78
2022-09-10T05:12:15.642Z,60.85
2022-09-10T05:14:42.572Z,59.22
2022-09-10T05:17:09.382Z,39.65
2022-09-10T05:19:36.227Z,29.20
2022-09-10T05:22:06.966Z,30.05
2022-09-10T05:24:34.489Z,37.63
2022-09-10T05:27:03.662Z,31.90
2022-09-10T05:29:30.893Z,30.73
2022-09-10T05:31:58.698Z,39.47
2022-09-10T05:34:25.782Z,27.35
2022-09-10T05:36:53.937Z,57.35
2022-09-10T05:39:21.389Z,76.00
2022-09-10T05:41:48.138Z,54.92
2022-09-10T05:44:15.224Z,49.10
2022-09-10T05:46:42.155Z,40.58
2022-09-10T05:49:13.201Z,34.78
2022-09-10T05:51:41.544Z,24.65
2022-09-10T05:54:08.999Z,28.95
2022-09-10T05:56:36.219Z,27.50
2022-09-10T05:59:04.287Z,27.17
2022-09-10T06:01:32.810Z,26.33
2022-09-10T06:04:01.330Z,25.42
2022-09-10T06:06:28.418Z,24.27
2022-09-10T06:09:04.723Z,22.45
2022-09-10T06:11:43.103Z,22.90
2022-09-10T06:14:10.526Z,28.13
2022-09-10T06:16:37.557Z,26.73
2022-09-10T06:19:06.195Z,36.97
2022-09-10T06:21:34.301Z,43.85
2022-09-10T06:24:01.375Z,45.10
2022-09-10T06:26:32.196Z,44.40
2022-09-10T06:29:03.998Z,50.75
2022-09-10T06:31:31.824Z,40.17
2022-09-10T06:33:59.724Z,35.05
2022-09-10T06:36:29.519Z,32.47
2022-09-10T06:38:58.132Z,36.40
2022-09-10T06:41:25.556Z,37.67
2022-09-10T06:44:04.043Z,40.53
2022-09-10T06:47:45.927Z,43.08
2022-09-10T06:49:43.927Z,42.03
2022-09-10T06:52:11.730Z,45.40
2022-09-10T06:54:39.003Z,41.13
2022-09-10T06:57:26.048Z,40.97
2022-09-10T06:59:52.789Z,48.15
2022-09-10T07:02:20.838Z,42.33
2022-09-10T07:04:49.098Z,37.47
2022-09-10T07:07:16.369Z,30.48
2022-09-10T07:09:43.370Z,31.75
2022-09-10T07:12:13.900Z,29.17
2022-09-10T07:14:41.664Z,29.98
2022-09-10T07:17:10.398Z,31.98
2022-09-10T07:19:38.616Z,29.48
2022-09-10T07:22:19.403Z,30.00
2022-09-10T07:24:47.931Z,28.58
2022-09-10T07:27:24.013Z,29.15
2022-09-10T07:29:52.155Z,30.77
2022-09-10T07:32:20.273Z,33.33
2022-09-10T07:34:50.371Z,28.88
2022-09-10T07:37:17.535Z,31.50
2022-09-10T07:39:46.160Z,32.70
2022-09-10T07:42:13.407Z,29.52
2022-09-10T07:44:40.891Z,32.15
2022-09-10T07:47:07.672Z,29.25
2022-09-10T07:49:34.741Z,29.67
2022-09-10T07:52:03.918Z,30.65
2022-09-10T07:54:37.114Z,31.67
2022-09-10T07:57:05.375Z,28.35
2022-09-10T07:59:33.928Z,28.58
2022-09-10T08:02:02.947Z,27.60
2022-09-10T08:04:36.446Z,24.13
2022-09-10T08:07:05.704Z,28.15
2022-09-10T08:09:34.897Z,25.83
2022-09-10T08:12:02.883Z,32.40
2022-09-10T08:14:30.119Z,27.95
2022-09-10T08:16:56.966Z,30.20
2022-09-10T08:19:23.855Z,23.10
2022-09-10T08:21:52.032Z,23.73
2022-09-10T08:24:26.189Z,23.92
2022-09-10T08:26:53.063Z,22.58
2022-09-10T08:29:19.928Z,23.40
2022-09-10T08:31:47.607Z,24.50
2022-09-10T08:34:27.189Z,26.77
2022-09-10T08:37:03.536Z,19.10
2022-09-10T08:39:33.037Z,20.65
2022-09-10T08:42:03.898Z,17.27
2022-09-10T08:44:36.742Z,19.13
2022-09-10T08:47:17.936Z,24.17
2022-09-10T08:50:11.740Z,21.33
2022-09-10T08:52:44.067Z,25.75
2022-09-10T08:55:21.914Z,25.30
2022-09-10T08:58:02.382Z,29.70
2022-09-10T09:00:38.036Z,26.00
2022-09-10T09:03:21.862Z,26.90
2022-09-10T09:05:51.432Z,20.75
2022-09-10T09:08:27.515Z,19.48
2022-09-10T09:11:04.259Z,18.30
2022-09-10T09:13:34.353Z,18.25
2022-09-10T09:16:04.415Z,16.60
2022-09-10T09:18:36.854Z,17.98
2022-09-10T09:21:17.664Z,17.65
2022-09-10T09:24:14.433Z,19.73
2022-09-10T09:26:50.059Z,16.05
2022-09-10T09:29:32.162Z,20.58
2022-09-10T09:32:03.536Z,26.80
2022-09-10T09:34:36.087Z,17.73
2022-09-10T09:37:11.378Z,17.40
2022-09-10T09:40:12.830Z,19.55
2022-09-10T09:42:56.248Z,14.55
2022-09-10T09:45:39.781Z,12.63
2022-09-10T09:48:09.183Z,20.60
2022-09-10T09:50:39.035Z,18.88
2022-09-10T09:53:06.455Z,11.88
2022-09-10T09:55:36.138Z,15.05
2022-09-10T09:58:21.342Z,23.58
2022-09-10T10:01:08.598Z,18.90
2022-09-10T10:03:37.712Z,18.52
2022-09-10T10:06:09.127Z,23.52
2022-09-10T10:08:41.771Z,25.98
2022-09-10T10:11:09.524Z,25.67
2022-09-10T10:13:46.086Z,18.73
2022-09-10T10:16:24.206Z,22.55
2022-09-10T10:18:51.463Z,20.92
2022-09-10T10:21:30.267Z,15.23
2022-09-10T10:23:57.936Z,20.27
2022-09-10T10:26:34.915Z,27.00
2022-09-10T10:29:17.815Z,14.98
2022-09-10T10:31:45.993Z,18.48
2022-09-10T10:34:15.727Z,17.15
2022-09-10T10:36:46.165Z,15.60
2022-09-10T10:39:27.723Z,22.10
2022-09-10T10:42:04.394Z,18.83
2022-09-10T10:44:35.550Z,21.27
2022-09-10T10:47:15.472Z,26.23
2022-09-10T10:50:01.286Z,30.23
2022-09-10T10:53:06.692Z,23.88
2022-09-10T10:55:51.987Z,18.02
2022-09-10T10:58:19.570Z,16.52
2022-09-10T11:00:49.800Z,21.25
2022-09-10T11:03:25.776Z,14.70
2022-09-10T11:05:57.494Z,17.35
2022-09-10T11:08:30.424Z,18.65
2022-09-10T11:11:00.553Z,28.15
2022-09-10T11:13:32.039Z,15.68
2022-09-10T11:16:20.216Z,15.52
2022-09-10T11:18:54.191Z,24.05
2022-09-10T11:21:39.379Z,20.05
2022-09-10T11:24:16.812Z,18.15
2022-09-10T11:26:49.721Z,17.83
2022-09-10T11:29:25.464Z,19.75
2022-09-10T11:31:57.755Z,14.93
2022-09-10T11:34:44.715Z,20.83
2022-09-10T11:39:41.915Z,17.23
2022-09-10T11:42:24.724Z,24.63
2022-09-10T11:44:58.390Z,17.48
2022-09-10T11:47:31.504Z,17.70
2022-09-10T11:50:02.866Z,22.17
2022-09-10T11:52:31.512Z,21.10
2022-09-10T11:54:58.798Z,17.90
2022-09-10T11:57:34.026Z,23.73
2022-09-10T12:00:00.825Z,12.95
2022-09-10T12:02:39.412Z,14.48
2022-09-10T12:05:25.085Z,21.63
2022-09-10T12:08:07.504Z,14.68
2022-09-10T12:10:53.522Z,16.88
2022-09-10T12:13:20.626Z,13.63
2022-09-10T12:15:58.455Z,19.77
2022-09-10T12:18:28.510Z,18.40
2022-09-10T12:20:57.537Z,21.85
2022-09-10T12:23:26.878Z,24.35
2022-09-10T12:26:19.808Z,19.60
2022-09-10T12:28:49.770Z,13.50
2022-09-10T12:31:18.205Z,18.50
2022-09-10T12:33:44.887Z,16.80
2022-09-10T12:36:14.336Z,15.60
2022-09-10T12:38:55.627Z,21.10
2022-09-10T12:41:25.106Z,11.65
2022-09-10T12:43:53.288Z,14.98
2022-09-10T12:46:22.927Z,13.15
2022-09-10T12:49:09.977Z,12.13
2022-09-10T12:51:56.771Z,13.00
2022-09-10T12:57:09.667Z,10.73
2022-09-10T12:59:36.432Z,17.67
2022-09-10T13:02:03.619Z,17.95
2022-09-10T13:04:32.883Z,15.13
2022-09-10T13:07:01.589Z,14.90
2022-09-10T13:09:36.711Z,10.88
2022-09-10T13:12:05.061Z,10.20
2022-09-10T13:14:36.052Z,7.55
2022-09-10T13:17:04.268Z,9.02
2022-09-10T13:19:30.945Z,12.30
2022-09-10T13:21:58.434Z,9.18
2022-09-10T13:24:35.019Z,11.20
2022-09-10T13:27:19.162Z,12.23
2022-09-10T13:29:48.331Z,9.82
2022-09-10T13:32:26.446Z,8.27
2022-09-10T13:35:09.093Z,7.75
2022-09-10T13:37:52.014Z,13.98
2022-09-10T13:40:39.164Z,10.48
2022-09-10T13:43:06.120Z,9.25
2022-09-10T13:45:38.190Z,8.75
2022-09-10T13:48:17.857Z,9.55
2022-09-10T13:50:57.730Z,10.25
2022-09-10T13:53:28.062Z,7.40
2022-09-10T13:55:58.891Z,6.05
2022-09-10T13:58:29.570Z,10.15
2022-09-10T14:00:57.648Z,3.35
2022-09-10T14:03:29.114Z,7.88
2022-09-10T14:06:16.095Z,9.00
2022-09-10T14:08:46.560Z,5.47
2022-09-10T14:11:13.302Z,5.35
2022-09-10T14:13:55.730Z,5.95
2022-09-10T14:16:29.502Z,4.97
2022-09-10T14:18:59.367Z,8.10
2022-09-10T14:21:29.647Z,7.50
2022-09-10T14:23:57.370Z,5.82
2022-09-10T14:26:26.497Z,4.63
2022-09-10T14:28:56.489Z,5.07
2022-09-10T14:31:26.729Z,5.35
2022-09-10T14:34:13.608Z,5.78
2022-09-10T14:36:40.403Z,3.13
2022-09-10T14:39:17.506Z,6.18
2022-09-10T14:41:44.739Z,5.20
2022-09-10T14:44:23.290Z,5.53
2022-09-10T14:46:54.447Z,3.05
2022-09-10T14:49:26.761Z,4.60
2022-09-10T14:51:53.855Z,5.85
2022-09-10T14:54:20.851Z,5.18
2022-09-10T14:56:48.623Z,5.07
2022-09-10T14:59:18.270Z,3.40
2022-09-10T15:01:46.646Z,5.78
2022-09-10T15:04:15.771Z,2.03
2022-09-10T15:06:44.107Z,3.50
2022-09-10T15:09:14.917Z,8.40
2022-09-10T15:11:49.119Z,5.28
2022-09-10T15:14:16.852Z,4.20
2022-09-10T15:16:44.197Z,5.20
2022-09-10T15:19:11.941Z,4.57
2022-09-10T15:21:39.493Z,3.88
2022-09-10T15:24:06.591Z,3.38
2022-09-10T15:26:33.620Z,2.63
2022-09-10T15:29:00.467Z,4.53
2022-09-10T15:31:32.047Z,4.18
2022-09-10T15:33:59.930Z,7.05
2022-09-10T15:36:28.419Z,4.63
2022-09-10T15:38:55.956Z,4.63
2022-09-10T15:41:22.693Z,3.00
2022-09-10T15:43:49.434Z,6.20
2022-09-10T15:46:17.218Z,5.85
2022-09-10T15:48:45.193Z,4.75
2022-09-10T15:51:16.112Z,5.60
2022-09-10T15:53:43.595Z,2.92
2022-09-10T15:56:11.318Z,3.25
2022-09-10T15:58:38.313Z,2.10
2022-09-10T16:01:07.612Z,4.63
2022-09-10T16:03:34.746Z,4.00
2022-09-10T16:06:02.617Z,3.33
2022-09-10T16:08:29.709Z,5.75
2022-09-10T16:10:56.716Z,3.03
2022-09-10T16:13:23.868Z,4.47
2022-09-10T16:16:04.389Z,4.78
2022-09-10T16:18:33.208Z,3.90
2022-09-10T16:21:11.641Z,3.83
2022-09-10T16:23:40.400Z,9.18
2022-09-10T16:26:07.715Z,4.28
2022-09-10T16:28:35.278Z,3.90
2022-09-10T16:31:16.118Z,9.88
2022-09-10T16:33:43.930Z,5.20
2022-09-10T16:36:10.990Z,14.07
2022-09-10T16:38:38.358Z,4.72
2022-09-10T16:41:06.561Z,5.85
2022-09-10T16:43:35.452Z,9.07
2022-09-10T16:46:05.812Z,7.72
2022-09-10T16:48:35.759Z,7.45
2022-09-10T16:51:06.696Z,6.82
2022-09-10T16:53:34.125Z,6.05
2022-09-10T16:56:01.531Z,7.38
2022-09-10T16:58:31.886Z,6.90
2022-09-10T17:01:02.262Z,6.38
2022-09-10T17:03:30.129Z,4.45
2022-09-10T17:05:58.025Z,4.78
2022-09-10T17:08:29.302Z,4.32
2022-09-10T17:10:56.923Z,5.03
2022-09-10T17:13:23.671Z,2.55
2022-09-10T17:15:50.833Z,4.15
2022-09-10T17:18:17.631Z,3.92
2022-09-10T17:20:44.861Z,7.60
2022-09-10T17:23:13.740Z,3.42
2022-09-10T17:25:40.769Z,4.95
2022-09-10T17:28:07.959Z,6.68
2022-09-10T17:30:34.998Z,6.90
2022-09-10T17:33:01.705Z,15.35
2022-09-10T17:35:29.855Z,20.08
2022-09-10T17:37:56.554Z,16.10
2022-09-10T17:40:24.108Z,11.43
2022-09-10T17:42:51.223Z,5.75
2022-09-10T17:45:19.861Z,6.72
2022-09-10T17:47:46.559Z,17.67
2022-09-10T17:50:13.419Z,6.93
2022-09-10T17:52:40.831Z,7.85
2022-09-10T17:55:07.655Z,7.60
2022-09-10T17:57:35.750Z,4.60
2022-09-10T18:00:03.190Z,4.85
2022-09-10T18:02:31.923Z,9.35
2022-09-10T18:04:59.033Z,6.00
2022-09-10T18:07:25.811Z,5.70
2022-09-10T18:09:53.636Z,4.10
2022-09-10T18:12:20.618Z,6.80
2022-09-10T18:14:47.315Z,7.18
2022-09-10T18:17:14.771Z,7.25
2022-09-10T18:19:41.496Z,2.75
2022-09-10T18:22:08.443Z,8.77
2022-09-10T18:24:35.752Z,6.45
2022-09-10T18:27:04.863Z,11.32
2022-09-10T18:29:31.807Z,8.43
2022-09-10T18:32:00.855Z,4.65
2022-09-10T18:34:28.817Z,5.78
2022-09-10T18:36:57.521Z,8.93
2022-09-10T18:39:25.900Z,6.22
2022-09-10T18:41:52.856Z,7.65
2022-09-10T18:44:21.870Z,6.05
2022-09-10T18:46:49.616Z,8.10
2022-09-10T18:49:20.964Z,6.50
2022-09-10T18:51:49.160Z,6.45
2022-09-10T18:54:16.949Z,8.27
2022-09-10T18:56:45.133Z,15.88
2022-09-10T18:59:13.328Z,9.30
2022-09-10T19:01:44.174Z,21.38
2022-09-10T19:04:13.007Z,15.02
2022-09-10T19:06:42.264Z,4.20
2022-09-10T19:09:17.101Z,4.53
2022-09-10T19:11:45.234Z,6.60
2022-09-10T19:14:20.107Z,6.43
2022-09-10T19:16:48.061Z,11.93
2022-09-10T19:19:25.099Z,5.90
2022-09-10T19:21:53.182Z,11.65
2022-09-10T19:24:32.777Z,7.47
2022-09-10T19:27:07.677Z,8.75
2022-09-10T19:29:34.439Z,4.28
2022-09-10T19:32:01.998Z,6.68
2022-09-10T19:34:31.253Z,5.90
2022-09-10T19:36:58.318Z,10.27
2022-09-10T19:39:25.410Z,14.85
2022-09-10T19:41:52.466Z,19.70
2022-09-10T19:44:19.187Z,6.80
2022-09-10T19:46:46.905Z,7.40
2022-09-10T19:49:13.722Z,8.93
2022-09-10T19:51:42.021Z,8.43
2022-09-10T19:54:10.101Z,9.32
2022-09-10T19:56:38.150Z,10.30
2022-09-10T19:59:08.822Z,6.55
2022-09-10T20:01:40.511Z,8.85
2022-09-10T20:04:08.923Z,9.25
2022-09-10T20:06:36.183Z,6.68
2022-09-10T20:09:03.964Z,9.10
2022-09-10T20:11:33.021Z,5.55
2022-09-10T20:14:01.479Z,6.07
2022-09-10T20:16:29.461Z,15.40
2022-09-10T20:18:56.175Z,14.60
2022-09-10T20:21:23.131Z,7.88
2022-09-10T20:23:56.684Z,13.32
2022-09-10T20:26:25.290Z,13.52
2022-09-10T20:28:57.128Z,12.73
2022-09-10T20:31:25.092Z,10.75
2022-09-10T20:33:56.576Z,6.95
2022-09-10T20:36:25.678Z,7.60
2022-09-10T20:38:53.295Z,7.95
2022-09-10T20:41:20.638Z,12.68
2022-09-10T20:43:52.183Z,11.93
2022-09-10T20:46:20.589Z,10.80
2022-09-10T20:48:49.332Z,6.32
2022-09-10T20:51:18.114Z,10.98
2022-09-10T20:53:45.171Z,6.32
2022-09-10T20:56:14.213Z,6.43
2022-09-10T20:58:41.862Z,6.90
2022-09-10T21:01:10.741Z,7.25
2022-09-10T21:03:38.751Z,10.02
2022-09-10T21:06:05.577Z,14.93
2022-09-10T21:08:32.622Z,6.85
2022-09-10T21:11:05.462Z,8.05
2022-09-10T21:13:36.368Z,6.32
2022-09-10T21:16:10.777Z,16.58
2022-09-10T21:18:38.399Z,3.70
2022-09-10T21:21:06.034Z,9.73
2022-09-10T21:23:32.931Z,8.10
2022-09-10T21:25:59.750Z,3.58
2022-09-10T21:28:27.374Z,8.15
2022-09-10T21:30:54.331Z,7.85
2022-09-10T21:33:21.102Z,6.60
2022-09-10T21:35:47.882Z,3.45
2022-09-10T21:38:15.284Z,8.25
2022-09-10T21:40:43.772Z,7.20
2022-09-10T21:43:10.487Z,6.30
2022-09-10T21:45:37.792Z,4.68
2022-09-10T21:48:04.821Z,7.05
2022-09-10T21:50:32.077Z,5.05
2022-09-10T21:52:58.821Z,5.63
2022-09-10T21:55:26.050Z,8.77
2022-09-10T21:57:52.769Z,9.00
2022-09-10T22:00:20.236Z,6.60
2022-09-10T22:02:49.720Z,6.05
2022-09-10T22:05:17.007Z,8.43
2022-09-10T22:07:43.749Z,9.55
2022-09-10T22:10:10.668Z,9.50
2022-09-10T22:12:37.614Z,10.98
2022-09-10T22:15:06.323Z,8.70
2022-09-10T22:17:33.117Z,10.85
2022-09-10T22:19:59.916Z,10.65
2022-09-10T22:22:27.060Z,8.57
2022-09-10T22:24:53.860Z,7.90
2022-09-10T22:27:20.617Z,7.35
2022-09-10T22:29:47.738Z,13.18
2022-09-10T22:32:15.304Z,9.70
2022-09-10T22:34:43.443Z,7.85
2022-09-10T22:37:10.181Z,15.30
2022-09-10T22:39:37.293Z,8.70
2022-09-10T22:42:07.725Z,15.55
2022-09-10T22:44:34.472Z,11.07
2022-09-10T22:47:01.378Z,9.82
2022-09-10T22:49:28.174Z,6.57
2022-09-10T22:51:55.014Z,10.82
2022-09-10T22:54:21.930Z,11.18
2022-09-10T22:56:48.982Z,11.10
2022-09-10T22:59:15.915Z,12.05
2022-09-10T23:01:43.764Z,13.90
2022-09-10T23:04:11.524Z,7.88
2022-09-10T23:06:38.769Z,9.57
2022-09-10T23:09:10.788Z,14.30
2022-09-10T23:11:37.998Z,18.02
2022-09-10T23:14:06.592Z,13.18
2022-09-10T23:16:43.044Z,15.10
2022-09-10T23:19:11.486Z,18.45
2022-09-10T23:22:03.845Z,19.10
2022-09-10T23:24:31.165Z,12.23
2022-09-10T23:26:58.088Z,12.95
2022-09-10T23:29:24.774Z,20.48
2022-09-10T23:31:55.029Z,17.23
2022-09-10T23:34:22.829Z,19.35
2022-09-10T23:36:49.631Z,21.33
2022-09-10T23:39:21.162Z,12.50
2022-09-10T23:41:48.879Z,10.07
2022-09-10T23:44:16.324Z,13.63
2022-09-10T23:46:44.772Z,16.33
2022-09-10T23:49:12.751Z,13.55
2022-09-10T23:51:40.323Z,13.93
2022-09-10T23:54:07.053Z,12.70
2022-09-10T23:56:34.528Z,20.20
2022-09-10T23:59:01.585Z,10.98
